sensor_id;sensor_type;location;lat;lon;timestamp;P1;durP1;ratioP1;P2;durP2;ratioP2
20369;SDS011;10344;47.592;9.600;2023-09-30T00:00:00;13.52;;;6.55;;
20369;SDS011;10344;47.592;9.600;2023-09-30T00:02:26;14.00;;;6.95;;
20369;SDS011;10344;47.592;9.600;2023-09-30T00:04:52;13.20;;;6.35;;
20369;SDS011;10344;47.592;9.600;2023-09-30T00:07:20;14.27;;;6.40;;
20369;SDS011;10344;47.592;9.600;2023-09-30T00:09:46;12.25;;;6.20;;
20369;SDS011;10344;47.592;9.600;2023-09-30T00:12:12;12.75;;;6.88;;
20369;SDS011;10344;47.592;9.600;2023-09-30T00:14:39;12.25;;;6.38;;
20369;SDS011;10344;47.592;9.600;2023-09-30T00:17:05;13.38;;;6.55;;
20369;SDS011;10344;47.592;9.600;2023-09-30T00:19:31;13.07;;;6.53;;
20369;SDS011;10344;47.592;9.600;2023-09-30T00:22:00;12.80;;;6.43;;
20369;SDS011;10344;47.592;9.600;2023-09-30T00:24:26;11.90;;;5.97;;
20369;SDS011;10344;47.592;9.600;2023-09-30T00:26:51;14.03;;;6.53;;
20369;SDS011;10344;47.592;9.600;2023-09-30T00:29:19;13.60;;;7.47;;
20369;SDS011;10344;47.592;9.600;2023-09-30T00:31:47;12.30;;;6.53;;
20369;SDS011;10344;47.592;9.600;2023-09-30T00:34:13;14.37;;;6.90;;
20369;SDS011;10344;47.592;9.600;2023-09-30T00:36:38;13.68;;;6.55;;
20369;SDS011;10344;47.592;9.600;2023-09-30T00:39:04;12.57;;;7.03;;
20369;SDS011;10344;47.592;9.600;2023-09-30T00:41:32;12.25;;;6.78;;
20369;SDS011;10344;47.592;9.600;2023-09-30T00:43:58;14.25;;;6.72;;
20369;SDS011;10344;47.592;9.600;2023-09-30T00:46:31;12.52;;;6.85;;
20369;SDS011;10344;47.592;9.600;2023-09-30T00:49:00;14.88;;;7.47;;
20369;SDS011;10344;47.592;9.600;2023-09-30T00:51:28;12.63;;;6.57;;
20369;SDS011;10344;47.592;9.600;2023-09-30T00:53:57;12.47;;;6.57;;
20369;SDS011;10344;47.592;9.600;2023-09-30T00:56:25;13.68;;;7.25;;
20369;SDS011;10344;47.592;9.600;2023-09-30T00:58:55;13.03;;;7.27;;
20369;SDS011;10344;47.592;9.600;2023-09-30T01:01:21;13.80;;;7.10;;
20369;SDS011;10344;47.592;9.600;2023-09-30T01:03:46;13.57;;;7.13;;
20369;SDS011;10344;47.592;9.600;2023-09-30T01:06:12;12.18;;;6.63;;
20369;SDS011;10344;47.592;9.600;2023-09-30T01:08:40;11.87;;;6.00;;
20369;SDS011;10344;47.592;9.600;2023-09-30T01:11:08;14.63;;;6.90;;
20369;SDS011;10344;47.592;9.600;2023-09-30T01:13:38;10.98;;;6.25;;
20369;SDS011;10344;47.592;9.600;2023-09-30T01:16:07;13.23;;;6.60;;
20369;SDS011;10344;47.592;9.600;2023-09-30T01:18:37;13.65;;;6.90;;
20369;SDS011;10344;47.592;9.600;2023-09-30T01:21:07;12.55;;;6.75;;
20369;SDS011;10344;47.592;9.600;2023-09-30T01:23:38;13.50;;;6.55;;
20369;SDS011;10344;47.592;9.600;2023-09-30T01:26:06;13.50;;;7.32;;
20369;SDS011;10344;47.592;9.600;2023-09-30T01:28:36;14.82;;;6.80;;
20369;SDS011;10344;47.592;9.600;2023-09-30T01:31:01;14.95;;;6.57;;
20369;SDS011;10344;47.592;9.600;2023-09-30T01:33:27;11.52;;;6.60;;
20369;SDS011;10344;47.592;9.600;2023-09-30T01:35:58;15.07;;;7.05;;
20369;SDS011;10344;47.592;9.600;2023-09-30T01:38:27;12.40;;;6.33;;
20369;SDS011;10344;47.592;9.600;2023-09-30T01:40:52;11.57;;;6.47;;
20369;SDS011;10344;47.592;9.600;2023-09-30T01:43:19;13.15;;;6.50;;
20369;SDS011;10344;47.592;9.600;2023-09-30T01:45:45;12.40;;;6.68;;
20369;SDS011;10344;47.592;9.600;2023-09-30T01:48:12;11.90;;;6.50;;
20369;SDS011;10344;47.592;9.600;2023-09-30T01:50:40;12.52;;;6.47;;
20369;SDS011;10344;47.592;9.600;2023-09-30T01:53:08;12.67;;;6.63;;
20369;SDS011;10344;47.592;9.600;2023-09-30T01:55:36;13.27;;;6.40;;
20369;SDS011;10344;47.592;9.600;2023-09-30T01:58:02;10.82;;;5.65;;
20369;SDS011;10344;47.592;9.600;2023-09-30T02:00:28;14.20;;;6.77;;
20369;SDS011;10344;47.592;9.600;2023-09-30T02:02:54;12.67;;;6.40;;
20369;SDS011;10344;47.592;9.600;2023-09-30T02:05:23;13.18;;;6.60;;
20369;SDS011;10344;47.592;9.600;2023-09-30T02:07:49;12.47;;;5.90;;
20369;SDS011;10344;47.592;9.600;2023-09-30T02:10:15;12.10;;;5.97;;
20369;SDS011;10344;47.592;9.600;2023-09-30T02:12:43;11.52;;;5.95;;
20369;SDS011;10344;47.592;9.600;2023-09-30T02:15:09;13.23;;;6.10;;
20369;SDS011;10344;47.592;9.600;2023-09-30T02:17:36;11.00;;;5.30;;
20369;SDS011;10344;47.592;9.600;2023-09-30T02:20:04;13.30;;;6.95;;
20369;SDS011;10344;47.592;9.600;2023-09-30T02:22:39;11.98;;;5.68;;
20369;SDS011;10344;47.592;9.600;2023-09-30T02:25:05;11.13;;;6.20;;
20369;SDS011;10344;47.592;9.600;2023-09-30T02:27:32;13.43;;;6.27;;
20369;SDS011;10344;47.592;9.600;2023-09-30T02:29:59;10.90;;;5.75;;
20369;SDS011;10344;47.592;9.600;2023-09-30T02:32:25;13.05;;;6.25;;
20369;SDS011;10344;47.592;9.600;2023-09-30T02:34:50;12.05;;;6.22;;
20369;SDS011;10344;47.592;9.600;2023-09-30T02:37:16;11.75;;;6.43;;
20369;SDS011;10344;47.592;9.600;2023-09-30T02:39:43;11.38;;;5.72;;
20369;SDS011;10344;47.592;9.600;2023-09-30T02:42:14;10.95;;;5.95;;
20369;SDS011;10344;47.592;9.600;2023-09-30T02:44:40;11.10;;;5.93;;
20369;SDS011;10344;47.592;9.600;2023-09-30T02:47:08;14.00;;;6.60;;
20369;SDS011;10344;47.592;9.600;2023-09-30T02:49:34;13.48;;;6.32;;
20369;SDS011;10344;47.592;9.600;2023-09-30T02:52:00;13.07;;;6.28;;
20369;SDS011;10344;47.592;9.600;2023-09-30T02:54:26;11.13;;;6.25;;
20369;SDS011;10344;47.592;9.600;2023-09-30T02:56:54;12.35;;;6.47;;
20369;SDS011;10344;47.592;9.600;2023-09-30T02:59:20;12.07;;;6.10;;
20369;SDS011;10344;47.592;9.600;2023-09-30T03:01:47;12.60;;;6.40;;
20369;SDS011;10344;47.592;9.600;2023-09-30T03:04:13;12.52;;;6.40;;
20369;SDS011;10344;47.592;9.600;2023-09-30T03:06:38;11.47;;;6.27;;
20369;SDS011;10344;47.592;9.600;2023-09-30T03:09:04;12.37;;;6.60;;
20369;SDS011;10344;47.592;9.600;2023-09-30T03:11:33;11.90;;;6.28;;
20369;SDS011;10344;47.592;9.600;2023-09-30T03:14:00;11.73;;;6.15;;
20369;SDS011;10344;47.592;9.600;2023-09-30T03:16:26;11.70;;;5.90;;
20369;SDS011;10344;47.592;9.600;2023-09-30T03:18:52;13.43;;;6.30;;
20369;SDS011;10344;47.592;9.600;2023-09-30T03:21:18;13.48;;;6.78;;
20369;SDS011;10344;47.592;9.600;2023-09-30T03:23:48;13.98;;;7.18;;
20369;SDS011;10344;47.592;9.600;2023-09-30T03:26:13;13.20;;;6.43;;
20369;SDS011;10344;47.592;9.600;2023-09-30T03:28:40;13.27;;;6.63;;
20369;SDS011;10344;47.592;9.600;2023-09-30T03:31:10;12.50;;;7.00;;
20369;SDS011;10344;47.592;9.600;2023-09-30T03:33:38;12.00;;;5.55;;
20369;SDS011;10344;47.592;9.600;2023-09-30T03:36:04;13.80;;;6.63;;
20369;SDS011;10344;47.592;9.600;2023-09-30T03:38:34;13.98;;;6.70;;
20369;SDS011;10344;47.592;9.600;2023-09-30T03:41:01;13.45;;;6.43;;
20369;SDS011;10344;47.592;9.600;2023-09-30T03:43:26;11.95;;;6.22;;
20369;SDS011;10344;47.592;9.600;2023-09-30T03:45:52;12.15;;;6.22;;
20369;SDS011;10344;47.592;9.600;2023-09-30T03:48:18;13.10;;;6.15;;
20369;SDS011;10344;47.592;9.600;2023-09-30T03:50:44;11.77;;;6.20;;
20369;SDS011;10344;47.592;9.600;2023-09-30T03:53:10;11.82;;;6.65;;
20369;SDS011;10344;47.592;9.600;2023-09-30T03:55:36;12.67;;;6.27;;
20369;SDS011;10344;47.592;9.600;2023-09-30T03:58:04;12.32;;;6.60;;
20369;SDS011;10344;47.592;9.600;2023-09-30T04:00:30;13.07;;;6.53;;
20369;SDS011;10344;47.592;9.600;2023-09-30T04:02:55;11.90;;;6.30;;
20369;SDS011;10344;47.592;9.600;2023-09-30T04:05:24;12.07;;;6.40;;
20369;SDS011;10344;47.592;9.600;2023-09-30T04:07:59;12.32;;;6.30;;
20369;SDS011;10344;47.592;9.600;2023-09-30T04:10:27;12.52;;;6.72;;
20369;SDS011;10344;47.592;9.600;2023-09-30T04:12:54;12.77;;;6.07;;
20369;SDS011;10344;47.592;9.600;2023-09-30T04:15:21;11.95;;;6.20;;
20369;SDS011;10344;47.592;9.600;2023-09-30T04:17:47;11.60;;;5.83;;
20369;SDS011;10344;47.592;9.600;2023-09-30T04:20:14;12.30;;;6.30;;
20369;SDS011;10344;47.592;9.600;2023-09-30T04:22:45;12.50;;;6.57;;
20369;SDS011;10344;47.592;9.600;2023-09-30T04:25:14;13.00;;;6.45;;
20369;SDS011;10344;47.592;9.600;2023-09-30T04:27:44;13.20;;;6.70;;
20369;SDS011;10344;47.592;9.600;2023-09-30T04:30:13;11.77;;;5.93;;
20369;SDS011;10344;47.592;9.600;2023-09-30T04:32:40;12.57;;;6.15;;
20369;SDS011;10344;47.592;9.600;2023-09-30T04:35:06;13.25;;;6.78;;
20369;SDS011;10344;47.592;9.600;2023-09-30T04:37:35;12.00;;;5.80;;
20369;SDS011;10344;47.592;9.600;2023-09-30T04:40:05;12.50;;;6.40;;
20369;SDS011;10344;47.592;9.600;2023-09-30T04:42:40;13.02;;;6.50;;
20369;SDS011;10344;47.592;9.600;2023-09-30T04:45:09;11.35;;;6.32;;
20369;SDS011;10344;47.592;9.600;2023-09-30T04:47:38;11.20;;;6.10;;
20369;SDS011;10344;47.592;9.600;2023-09-30T04:50:10;13.73;;;6.23;;
20369;SDS011;10344;47.592;9.600;2023-09-30T04:52:37;12.85;;;6.43;;
20369;SDS011;10344;47.592;9.600;2023-09-30T04:55:04;11.90;;;5.55;;
20369;SDS011;10344;47.592;9.600;2023-09-30T04:57:32;12.27;;;6.30;;
20369;SDS011;10344;47.592;9.600;2023-09-30T04:59:58;12.83;;;6.27;;
20369;SDS011;10344;47.592;9.600;2023-09-30T05:02:24;9.97;;;5.93;;
20369;SDS011;10344;47.592;9.600;2023-09-30T05:04:50;11.43;;;5.85;;
20369;SDS011;10344;47.592;9.600;2023-09-30T05:07:17;11.88;;;6.35;;
20369;SDS011;10344;47.592;9.600;2023-09-30T05:09:45;11.25;;;5.82;;
20369;SDS011;10344;47.592;9.600;2023-09-30T05:12:11;12.52;;;6.32;;
20369;SDS011;10344;47.592;9.600;2023-09-30T05:14:36;11.75;;;5.88;;
20369;SDS011;10344;47.592;9.600;2023-09-30T05:17:03;12.80;;;6.57;;
20369;SDS011;10344;47.592;9.600;2023-09-30T05:19:33;13.23;;;6.50;;
20369;SDS011;10344;47.592;9.600;2023-09-30T05:21:58;11.80;;;6.17;;
20369;SDS011;10344;47.592;9.600;2023-09-30T05:24:28;11.77;;;6.35;;
20369;SDS011;10344;47.592;9.600;2023-09-30T05:26:54;10.93;;;5.50;;
20369;SDS011;10344;47.592;9.600;2023-09-30T05:29:20;11.90;;;5.83;;
20369;SDS011;10344;47.592;9.600;2023-09-30T05:31:48;9.60;;;4.90;;
20369;SDS011;10344;47.592;9.600;2023-09-30T05:34:16;11.18;;;5.68;;
20369;SDS011;10344;47.592;9.600;2023-09-30T05:36:44;11.95;;;5.72;;
20369;SDS011;10344;47.592;9.600;2023-09-30T05:39:09;12.05;;;5.65;;
20369;SDS011;10344;47.592;9.600;2023-09-30T05:41:35;11.07;;;5.30;;
20369;SDS011;10344;47.592;9.600;2023-09-30T05:44:03;11.02;;;5.60;;
20369;SDS011;10344;47.592;9.600;2023-09-30T05:46:32;12.05;;;5.13;;
20369;SDS011;10344;47.592;9.600;2023-09-30T05:49:00;10.23;;;5.18;;
20369;SDS011;10344;47.592;9.600;2023-09-30T05:51:25;10.20;;;5.13;;
20369;SDS011;10344;47.592;9.600;2023-09-30T05:53:51;12.07;;;5.18;;
20369;SDS011;10344;47.592;9.600;2023-09-30T05:56:17;9.63;;;4.75;;
20369;SDS011;10344;47.592;9.600;2023-09-30T05:58:43;13.80;;;5.77;;
20369;SDS011;10344;47.592;9.600;2023-09-30T06:01:10;9.85;;;4.85;;
20369;SDS011;10344;47.592;9.600;2023-09-30T06:03:36;10.13;;;5.07;;
20369;SDS011;10344;47.592;9.600;2023-09-30T06:06:14;9.85;;;5.10;;
20369;SDS011;10344;47.592;9.600;2023-09-30T06:08:43;11.47;;;5.03;;
20369;SDS011;10344;47.592;9.600;2023-09-30T06:11:17;11.37;;;5.00;;
20369;SDS011;10344;47.592;9.600;2023-09-30T06:13:44;9.27;;;4.25;;
20369;SDS011;10344;47.592;9.600;2023-09-30T06:16:15;9.98;;;4.93;;
20369;SDS011;10344;47.592;9.600;2023-09-30T06:18:41;9.23;;;4.40;;
20369;SDS011;10344;47.592;9.600;2023-09-30T06:21:06;8.13;;;4.43;;
20369;SDS011;10344;47.592;9.600;2023-09-30T06:23:35;10.00;;;5.03;;
20369;SDS011;10344;47.592;9.600;2023-09-30T06:26:03;11.13;;;4.88;;
20369;SDS011;10344;47.592;9.600;2023-09-30T06:28:28;9.85;;;5.20;;
20369;SDS011;10344;47.592;9.600;2023-09-30T06:30:58;9.98;;;4.38;;
20369;SDS011;10344;47.592;9.600;2023-09-30T06:33:26;9.40;;;4.50;;
20369;SDS011;10344;47.592;9.600;2023-09-30T06:35:54;9.45;;;4.95;;
20369;SDS011;10344;47.592;9.600;2023-09-30T06:38:20;8.63;;;4.55;;
20369;SDS011;10344;47.592;9.600;2023-09-30T06:40:46;8.80;;;4.60;;
20369;SDS011;10344;47.592;9.600;2023-09-30T06:43:15;10.02;;;4.55;;
20369;SDS011;10344;47.592;9.600;2023-09-30T06:45:41;9.57;;;4.50;;
20369;SDS011;10344;47.592;9.600;2023-09-30T06:48:08;10.15;;;4.90;;
20369;SDS011;10344;47.592;9.600;2023-09-30T06:50:43;10.75;;;4.70;;
20369;SDS011;10344;47.592;9.600;2023-09-30T06:53:14;9.32;;;4.72;;
20369;SDS011;10344;47.592;9.600;2023-09-30T06:55:43;9.13;;;4.82;;
20369;SDS011;10344;47.592;9.600;2023-09-30T06:58:09;11.30;;;5.43;;
20369;SDS011;10344;47.592;9.600;2023-09-30T07:00:41;9.98;;;4.65;;
20369;SDS011;10344;47.592;9.600;2023-09-30T07:03:07;10.77;;;5.13;;
20369;SDS011;10344;47.592;9.600;2023-09-30T07:05:35;8.02;;;4.32;;
20369;SDS011;10344;47.592;9.600;2023-09-30T07:08:01;10.55;;;4.40;;
20369;SDS011;10344;47.592;9.600;2023-09-30T07:10:29;10.43;;;4.87;;
20369;SDS011;10344;47.592;9.600;2023-09-30T07:12:57;9.63;;;4.90;;
20369;SDS011;10344;47.592;9.600;2023-09-30T07:15:27;10.67;;;4.77;;
20369;SDS011;10344;47.592;9.600;2023-09-30T07:17:57;10.32;;;5.15;;
20369;SDS011;10344;47.592;9.600;2023-09-30T07:20:23;10.15;;;4.75;;
20369;SDS011;10344;47.592;9.600;2023-09-30T07:22:48;10.37;;;4.90;;
20369;SDS011;10344;47.592;9.600;2023-09-30T07:25:14;10.40;;;4.53;;
20369;SDS011;10344;47.592;9.600;2023-09-30T07:27:42;10.18;;;4.97;;
20369;SDS011;10344;47.592;9.600;2023-09-30T07:30:08;11.65;;;5.07;;
20369;SDS011;10344;47.592;9.600;2023-09-30T07:32:37;10.05;;;4.85;;
20369;SDS011;10344;47.592;9.600;2023-09-30T07:35:03;9.93;;;5.07;;
20369;SDS011;10344;47.592;9.600;2023-09-30T07:37:29;11.47;;;5.20;;
20369;SDS011;10344;47.592;9.600;2023-09-30T07:39:55;10.23;;;5.03;;
20369;SDS011;10344;47.592;9.600;2023-09-30T07:42:20;11.47;;;5.57;;
20369;SDS011;10344;47.592;9.600;2023-09-30T07:44:47;11.40;;;5.47;;
20369;SDS011;10344;47.592;9.600;2023-09-30T07:47:15;10.80;;;5.13;;
20369;SDS011;10344;47.592;9.600;2023-09-30T07:49:43;13.45;;;5.78;;
20369;SDS011;10344;47.592;9.600;2023-09-30T07:52:11;11.40;;;5.23;;
20369;SDS011;10344;47.592;9.600;2023-09-30T07:54:39;12.85;;;5.75;;
20369;SDS011;10344;47.592;9.600;2023-09-30T07:57:08;9.23;;;4.93;;
20369;SDS011;10344;47.592;9.600;2023-09-30T07:59:36;10.77;;;4.80;;
20369;SDS011;10344;47.592;9.600;2023-09-30T08:02:02;11.00;;;5.00;;
20369;SDS011;10344;47.592;9.600;2023-09-30T08:04:29;11.43;;;5.70;;
20369;SDS011;10344;47.592;9.600;2023-09-30T08:06:58;10.93;;;5.33;;
20369;SDS011;10344;47.592;9.600;2023-09-30T08:24:07;10.20;;;4.70;;
20369;SDS011;10344;47.592;9.600;2023-09-30T08:26:33;11.93;;;5.40;;
20369;SDS011;10344;47.592;9.600;2023-09-30T08:29:02;11.32;;;4.90;;
20369;SDS011;10344;47.592;9.600;2023-09-30T08:31:28;11.05;;;5.13;;
20369;SDS011;10344;47.592;9.600;2023-09-30T08:33:56;12.02;;;5.10;;
20369;SDS011;10344;47.592;9.600;2023-09-30T08:36:22;8.93;;;4.38;;
20369;SDS011;10344;47.592;9.600;2023-09-30T08:38:47;10.93;;;4.93;;
20369;SDS011;10344;47.592;9.600;2023-09-30T08:41:32;9.93;;;5.03;;
20369;SDS011;10344;47.592;9.600;2023-09-30T08:43:59;10.02;;;4.63;;
20369;SDS011;10344;47.592;9.600;2023-09-30T08:46:36;10.53;;;4.80;;
20369;SDS011;10344;47.592;9.600;2023-09-30T08:49:03;11.23;;;4.73;;
20369;SDS011;10344;47.592;9.600;2023-09-30T08:51:29;10.48;;;4.85;;
20369;SDS011;10344;47.592;9.600;2023-09-30T08:53:58;9.65;;;4.57;;
20369;SDS011;10344;47.592;9.600;2023-09-30T08:56:29;11.75;;;5.03;;
20369;SDS011;10344;47.592;9.600;2023-09-30T08:58:58;9.57;;;4.80;;
20369;SDS011;10344;47.592;9.600;2023-09-30T09:01:30;10.38;;;4.90;;
20369;SDS011;10344;47.592;9.600;2023-09-30T09:03:56;10.05;;;4.63;;
20369;SDS011;10344;47.592;9.600;2023-09-30T09:06:23;9.68;;;4.43;;
20369;SDS011;10344;47.592;9.600;2023-09-30T09:08:52;9.98;;;4.85;;
20369;SDS011;10344;47.592;9.600;2023-09-30T09:11:37;12.40;;;5.50;;
20369;SDS011;10344;47.592;9.600;2023-09-30T09:14:03;10.20;;;4.93;;
20369;SDS011;10344;47.592;9.600;2023-09-30T09:16:29;9.23;;;4.80;;
20369;SDS011;10344;47.592;9.600;2023-09-30T09:18:55;10.25;;;4.72;;
20369;SDS011;10344;47.592;9.600;2023-09-30T09:21:22;10.87;;;5.30;;
20369;SDS011;10344;47.592;9.600;2023-09-30T09:23:51;10.85;;;4.80;;
20369;SDS011;10344;47.592;9.600;2023-09-30T09:26:27;10.85;;;4.80;;
20369;SDS011;10344;47.592;9.600;2023-09-30T09:28:57;10.88;;;5.05;;
20369;SDS011;10344;47.592;9.600;2023-09-30T09:31:25;9.98;;;4.82;;
20369;SDS011;10344;47.592;9.600;2023-09-30T09:33:59;10.82;;;4.60;;
20369;SDS011;10344;47.592;9.600;2023-09-30T09:36:39;13.73;;;5.47;;
20369;SDS011;10344;47.592;9.600;2023-09-30T09:39:06;8.57;;;4.78;;
20369;SDS011;10344;47.592;9.600;2023-09-30T09:41:32;10.50;;;4.70;;
20369;SDS011;10344;47.592;9.600;2023-09-30T09:43:58;12.20;;;5.10;;
20369;SDS011;10344;47.592;9.600;2023-09-30T09:46:29;11.40;;;5.10;;
20369;SDS011;10344;47.592;9.600;2023-09-30T09:48:55;12.23;;;5.47;;
20369;SDS011;10344;47.592;9.600;2023-09-30T09:51:22;12.43;;;5.45;;
20369;SDS011;10344;47.592;9.600;2023-09-30T09:53:51;11.38;;;5.60;;
20369;SDS011;10344;47.592;9.600;2023-09-30T09:56:22;12.75;;;5.53;;
20369;SDS011;10344;47.592;9.600;2023-09-30T09:58:48;11.50;;;5.65;;
20369;SDS011;10344;47.592;9.600;2023-09-30T10:01:15;11.57;;;5.28;;
20369;SDS011;10344;47.592;9.600;2023-09-30T10:03:41;11.10;;;5.55;;
20369;SDS011;10344;47.592;9.600;2023-09-30T10:06:07;11.20;;;5.38;;
20369;SDS011;10344;47.592;9.600;2023-09-30T10:08:43;12.57;;;5.50;;
20369;SDS011;10344;47.592;9.600;2023-09-30T10:11:20;8.57;;;4.73;;
20369;SDS011;10344;47.592;9.600;2023-09-30T10:21:40;11.85;;;5.32;;
20369;SDS011;10344;47.592;9.600;2023-09-30T10:24:47;10.80;;;4.87;;
20369;SDS011;10344;47.592;9.600;2023-09-30T10:40:49;11.05;;;5.22;;
20369;SDS011;10344;47.592;9.600;2023-09-30T10:46:05;8.10;;;5.07;;
20369;SDS011;10344;47.592;9.600;2023-09-30T10:48:52;8.85;;;4.43;;
20369;SDS011;10344;47.592;9.600;2023-09-30T10:51:21;8.15;;;4.53;;
20369;SDS011;10344;47.592;9.600;2023-09-30T10:53:50;9.40;;;5.10;;
20369;SDS011;10344;47.592;9.600;2023-09-30T10:56:26;8.88;;;4.65;;
20369;SDS011;10344;47.592;9.600;2023-09-30T10:58:59;11.00;;;5.37;;
20369;SDS011;10344;47.592;9.600;2023-09-30T11:01:32;13.10;;;5.75;;
20369;SDS011;10344;47.592;9.600;2023-09-30T11:04:03;9.63;;;4.72;;
20369;SDS011;10344;47.592;9.600;2023-09-30T11:06:30;10.30;;;4.50;;
20369;SDS011;10344;47.592;9.600;2023-09-30T11:08:57;9.40;;;4.65;;
20369;SDS011;10344;47.592;9.600;2023-09-30T11:14:20;9.73;;;4.72;;
20369;SDS011;10344;47.592;9.600;2023-09-30T11:16:57;12.88;;;5.15;;
20369;SDS011;10344;47.592;9.600;2023-09-30T11:19:24;11.53;;;5.27;;
20369;SDS011;10344;47.592;9.600;2023-09-30T11:21:52;12.35;;;5.38;;
20369;SDS011;10344;47.592;9.600;2023-09-30T11:24:19;11.65;;;5.25;;
20369;SDS011;10344;47.592;9.600;2023-09-30T11:26:48;10.97;;;5.47;;
20369;SDS011;10344;47.592;9.600;2023-09-30T11:29:18;12.30;;;5.45;;
20369;SDS011;10344;47.592;9.600;2023-09-30T11:31:46;10.95;;;5.60;;
20369;SDS011;10344;47.592;9.600;2023-09-30T11:34:16;8.60;;;4.50;;
20369;SDS011;10344;47.592;9.600;2023-09-30T11:36:49;10.93;;;4.93;;
20369;SDS011;10344;47.592;9.600;2023-09-30T11:41:49;10.60;;;5.38;;
20369;SDS011;10344;47.592;9.600;2023-09-30T11:44:14;14.02;;;6.28;;
20369;SDS011;10344;47.592;9.600;2023-09-30T11:46:58;12.27;;;5.15;;
20369;SDS011;10344;47.592;9.600;2023-09-30T11:49:34;11.85;;;5.38;;
20369;SDS011;10344;47.592;9.600;2023-09-30T11:52:10;10.73;;;5.85;;
20369;SDS011;10344;47.592;9.600;2023-09-30T11:54:37;12.27;;;5.47;;
20369;SDS011;10344;47.592;9.600;2023-09-30T11:57:13;11.63;;;5.65;;
20369;SDS011;10344;47.592;9.600;2023-09-30T11:59:40;11.02;;;5.30;;
20369;SDS011;10344;47.592;9.600;2023-09-30T12:02:12;11.38;;;5.55;;
20369;SDS011;10344;47.592;9.600;2023-09-30T12:04:46;9.82;;;5.28;;
20369;SDS011;10344;47.592;9.600;2023-09-30T12:07:14;11.13;;;5.40;;
20369;SDS011;10344;47.592;9.600;2023-09-30T12:09:40;11.80;;;5.40;;
20369;SDS011;10344;47.592;9.600;2023-09-30T12:12:08;9.80;;;4.88;;
20369;SDS011;10344;47.592;9.600;2023-09-30T12:14:34;11.52;;;5.60;;
20369;SDS011;10344;47.592;9.600;2023-09-30T12:17:02;10.70;;;5.03;;
20369;SDS011;10344;47.592;9.600;2023-09-30T12:19:28;11.85;;;5.00;;
20369;SDS011;10344;47.592;9.600;2023-09-30T12:21:54;10.30;;;5.33;;
20369;SDS011;10344;47.592;9.600;2023-09-30T12:24:22;10.63;;;5.43;;
20369;SDS011;10344;47.592;9.600;2023-09-30T12:26:49;8.55;;;4.57;;
20369;SDS011;10344;47.592;9.600;2023-09-30T12:29:20;11.18;;;4.97;;
20369;SDS011;10344;47.592;9.600;2023-09-30T12:31:51;10.85;;;5.25;;
20369;SDS011;10344;47.592;9.600;2023-09-30T12:34:17;10.25;;;5.00;;
20369;SDS011;10344;47.592;9.600;2023-09-30T12:36:43;10.57;;;5.10;;
20369;SDS011;10344;47.592;9.600;2023-09-30T12:39:10;10.35;;;5.00;;
20369;SDS011;10344;47.592;9.600;2023-09-30T12:41:39;9.87;;;5.27;;
20369;SDS011;10344;47.592;9.600;2023-09-30T12:44:07;10.60;;;5.35;;
20369;SDS011;10344;47.592;9.600;2023-09-30T12:46:33;12.02;;;5.80;;
20369;SDS011;10344;47.592;9.600;2023-09-30T12:49:01;10.40;;;5.43;;
20369;SDS011;10344;47.592;9.600;2023-09-30T12:51:30;9.70;;;5.43;;
20369;SDS011;10344;47.592;9.600;2023-09-30T12:53:59;10.77;;;5.40;;
20369;SDS011;10344;47.592;9.600;2023-09-30T12:56:25;10.73;;;5.37;;
20369;SDS011;10344;47.592;9.600;2023-09-30T12:58:54;12.00;;;5.47;;
20369;SDS011;10344;47.592;9.600;2023-09-30T13:01:20;11.05;;;5.75;;
20369;SDS011;10344;47.592;9.600;2023-09-30T13:03:46;10.32;;;4.78;;
20369;SDS011;10344;47.592;9.600;2023-09-30T13:06:12;12.23;;;5.50;;
20369;SDS011;10344;47.592;9.600;2023-09-30T13:08:39;10.80;;;5.47;;
20369;SDS011;10344;47.592;9.600;2023-09-30T13:11:04;11.70;;;5.37;;
20369;SDS011;10344;47.592;9.600;2023-09-30T13:13:31;11.23;;;5.40;;
20369;SDS011;10344;47.592;9.600;2023-09-30T13:15:58;10.85;;;5.50;;
20369;SDS011;10344;47.592;9.600;2023-09-30T13:18:30;12.18;;;5.55;;
20369;SDS011;10344;47.592;9.600;2023-09-30T13:20:56;11.77;;;5.60;;
20369;SDS011;10344;47.592;9.600;2023-09-30T13:23:22;12.23;;;5.82;;
20369;SDS011;10344;47.592;9.600;2023-09-30T13:25:50;12.80;;;6.03;;
20369;SDS011;10344;47.592;9.600;2023-09-30T13:28:16;13.82;;;6.10;;
20369;SDS011;10344;47.592;9.600;2023-09-30T13:30:44;10.10;;;5.03;;
20369;SDS011;10344;47.592;9.600;2023-09-30T13:33:15;11.48;;;5.50;;
20369;SDS011;10344;47.592;9.600;2023-09-30T13:35:41;11.60;;;5.80;;
20369;SDS011;10344;47.592;9.600;2023-09-30T13:38:10;11.02;;;5.10;;
20369;SDS011;10344;47.592;9.600;2023-09-30T13:40:35;11.82;;;5.47;;
20369;SDS011;10344;47.592;9.600;2023-09-30T13:43:03;10.20;;;5.17;;
20369;SDS011;10344;47.592;9.600;2023-09-30T13:45:31;11.07;;;5.30;;
20369;SDS011;10344;47.592;9.600;2023-09-30T13:47:57;11.02;;;5.57;;
20369;SDS011;10344;47.592;9.600;2023-09-30T13:50:22;12.27;;;5.53;;
20369;SDS011;10344;47.592;9.600;2023-09-30T13:52:53;11.48;;;5.75;;
20369;SDS011;10344;47.592;9.600;2023-09-30T13:55:19;11.20;;;5.90;;
20369;SDS011;10344;47.592;9.600;2023-09-30T13:57:45;13.93;;;5.97;;
20369;SDS011;10344;47.592;9.600;2023-09-30T14:00:16;10.37;;;5.27;;
20369;SDS011;10344;47.592;9.600;2023-09-30T14:02:44;10.65;;;5.55;;
20369;SDS011;10344;47.592;9.600;2023-09-30T14:05:10;12.60;;;5.95;;
20369;SDS011;10344;47.592;9.600;2023-09-30T14:07:38;10.40;;;5.30;;
20369;SDS011;10344;47.592;9.600;2023-09-30T14:10:05;11.13;;;5.30;;
20369;SDS011;10344;47.592;9.600;2023-09-30T14:12:35;15.18;;;6.63;;
20369;SDS011;10344;47.592;9.600;2023-09-30T14:15:05;13.68;;;6.05;;
20369;SDS011;10344;47.592;9.600;2023-09-30T14:17:31;11.73;;;5.60;;
20369;SDS011;10344;47.592;9.600;2023-09-30T14:19:57;10.60;;;5.22;;
20369;SDS011;10344;47.592;9.600;2023-09-30T14:22:23;10.55;;;5.43;;
20369;SDS011;10344;47.592;9.600;2023-09-30T14:24:49;11.52;;;5.70;;
20369;SDS011;10344;47.592;9.600;2023-09-30T14:27:17;9.30;;;5.10;;
20369;SDS011;10344;47.592;9.600;2023-09-30T14:29:45;12.03;;;5.73;;
20369;SDS011;10344;47.592;9.600;2023-09-30T14:32:11;8.65;;;4.78;;
20369;SDS011;10344;47.592;9.600;2023-09-30T14:34:36;11.25;;;5.45;;
20369;SDS011;10344;47.592;9.600;2023-09-30T14:37:02;11.70;;;5.27;;
20369;SDS011;10344;47.592;9.600;2023-09-30T14:39:28;10.23;;;5.40;;
20369;SDS011;10344;47.592;9.600;2023-09-30T14:41:53;10.67;;;5.37;;
20369;SDS011;10344;47.592;9.600;2023-09-30T14:44:22;10.98;;;5.20;;
20369;SDS011;10344;47.592;9.600;2023-09-30T14:46:49;9.48;;;5.20;;
20369;SDS011;10344;47.592;9.600;2023-09-30T14:49:17;10.60;;;5.47;;
20369;SDS011;10344;47.592;9.600;2023-09-30T14:51:42;11.73;;;5.83;;
20369;SDS011;10344;47.592;9.600;2023-09-30T14:54:13;12.17;;;5.60;;
20369;SDS011;10344;47.592;9.600;2023-09-30T14:56:39;11.25;;;5.78;;
20369;SDS011;10344;47.592;9.600;2023-09-30T14:59:07;12.07;;;6.05;;
20369;SDS011;10344;47.592;9.600;2023-09-30T15:01:37;12.52;;;5.65;;
20369;SDS011;10344;47.592;9.600;2023-09-30T15:04:05;12.57;;;5.93;;
20369;SDS011;10344;47.592;9.600;2023-09-30T15:06:36;11.82;;;5.63;;
20369;SDS011;10344;47.592;9.600;2023-09-30T15:09:02;13.05;;;5.97;;
20369;SDS011;10344;47.592;9.600;2023-09-30T15:11:31;9.88;;;5.40;;
20369;SDS011;10344;47.592;9.600;2023-09-30T15:13:57;10.73;;;5.45;;
20369;SDS011;10344;47.592;9.600;2023-09-30T15:16:25;11.07;;;5.50;;
20369;SDS011;10344;47.592;9.600;2023-09-30T15:18:50;11.20;;;5.33;;
20369;SDS011;10344;47.592;9.600;2023-09-30T15:21:16;10.32;;;5.53;;
20369;SDS011;10344;47.592;9.600;2023-09-30T15:23:44;12.45;;;5.70;;